Aquasco, Maryland
Current Conditions -  °F | °C
As of 8:58 AM on Wednesday 28 Jan 2015 (Local Time) from KADW Reporting Station
Clear Clear  
Wind Chill: 10°   Ceiling: Unl
Heat Index: 24°   Visibility: 10mi
Dew Point:   Wind: 18mph
Humidity: 50%   Direction: 320°NW
Pressure: 30.19"   Gusts: 25mph
Location:  38.58°N, 76.73°W
Report Text: KADW 281358Z 32016G22KT 10SM CLR M04/M14 A3019 RMK AO2A SLP234 T10451136 $
Loading
Personal Weather Stations






























Interactive Weather Map New forecast layout! Learn more

10-Day Weather Forecast

Advertisements
Track Severe Weather on mobile